createdAt,value
2019-06-07T00:00:02.859Z,18.57
2019-06-07T00:02:55.183Z,18.37
2019-06-07T00:05:26.771Z,18.17
2019-06-07T00:08:07.605Z,17.97
2019-06-07T00:10:36.634Z,18.03
2019-06-07T00:13:06.879Z,17.53
2019-06-07T00:15:38.887Z,17.67
2019-06-07T00:18:13.556Z,16.60
2019-06-07T00:20:44.499Z,18.03
2019-06-07T00:23:22.118Z,17.90
2019-06-07T00:25:49.158Z,17.97
2019-06-07T00:28:24.374Z,18.33
2019-06-07T00:30:56.433Z,18.67
2019-06-07T00:33:27.936Z,18.60
2019-06-07T00:35:59.579Z,18.33
2019-06-07T00:38:30.944Z,18.03
2019-06-07T00:41:04.088Z,18.23
2019-06-07T00:43:38.107Z,20.77
2019-06-07T00:46:14.091Z,25.57
2019-06-07T00:48:42.663Z,22.80
2019-06-07T00:51:17.269Z,22.33
2019-06-07T00:53:48.085Z,21.63
2019-06-07T00:56:21.756Z,20.20
2019-06-07T00:59:10.439Z,18.50
2019-06-07T01:01:32.433Z,19.03
2019-06-07T01:04:03.931Z,19.03
2019-06-07T01:06:35.893Z,18.57
2019-06-07T01:09:09.099Z,18.93
2019-06-07T01:11:54.144Z,18.90
2019-06-07T01:14:28.376Z,19.47
2019-06-07T01:17:20.155Z,19.87
2019-06-07T01:19:31.817Z,19.40
2019-06-07T01:22:03.348Z,18.87
2019-06-07T01:24:34.847Z,18.93
2019-06-07T01:27:06.511Z,18.63
2019-06-07T01:29:38.318Z,19.07
2019-06-07T01:32:09.866Z,18.70
2019-06-07T01:34:41.364Z,18.87
2019-06-07T01:37:12.808Z,19.37
2019-06-07T01:39:44.515Z,19.00
2019-06-07T01:42:18.067Z,20.40
2019-06-07T01:44:49.163Z,19.53
2019-06-07T01:47:24.550Z,19.60
2019-06-07T01:49:53.603Z,18.80
2019-06-07T01:52:26.643Z,19.37
2019-06-07T01:54:59.140Z,17.67
2019-06-07T01:57:44.713Z,18.57
2019-06-07T02:00:03.977Z,18.90
2019-06-07T02:02:35.582Z,17.73
2019-06-07T02:05:08.062Z,18.33
2019-06-07T02:07:40.110Z,18.03
2019-06-07T02:10:12.024Z,16.97
2019-06-07T02:12:43.853Z,17.33
2019-06-07T02:15:15.557Z,17.77
2019-06-07T02:17:47.459Z,18.30
2019-06-07T02:20:20.358Z,18.47
2019-06-07T02:22:52.069Z,19.10
2019-06-07T02:25:48.431Z,18.40
2019-06-07T02:28:25.793Z,18.43
2019-06-07T02:30:47.246Z,17.70
2019-06-07T02:33:02.977Z,18.30
2019-06-07T02:35:40.321Z,18.53
2019-06-07T02:38:07.635Z,18.70
2019-06-07T02:40:39.096Z,17.50
2019-06-07T02:43:10.544Z,17.20
2019-06-07T02:45:43.706Z,17.80
2019-06-07T02:48:15.421Z,17.20
2019-06-07T02:50:46.995Z,18.87
2019-06-07T02:53:18.498Z,20.37
2019-06-07T02:56:34.158Z,21.30
2019-06-07T02:58:26.130Z,21.10
2019-06-07T03:01:07.665Z,19.47
2019-06-07T03:03:31.093Z,19.60
2019-06-07T03:06:03.579Z,19.57
2019-06-07T03:08:36.759Z,17.60
2019-06-07T03:11:08.647Z,17.37
2019-06-07T03:13:46.256Z,17.20
2019-06-07T03:16:37.032Z,17.10
2019-06-07T03:19:11.931Z,18.17
2019-06-07T03:21:44.774Z,16.87
2019-06-07T03:24:16.159Z,16.83
2019-06-07T03:27:31.821Z,16.50
2019-06-07T03:29:20.927Z,16.80
2019-06-07T03:31:52.646Z,16.40
2019-06-07T03:34:24.085Z,17.23
2019-06-07T03:36:55.621Z,17.07
2019-06-07T03:39:28.398Z,18.13
2019-06-07T03:42:06.177Z,17.03
2019-06-07T03:44:37.783Z,17.17
2019-06-07T03:47:06.918Z,16.67
2019-06-07T03:49:41.805Z,17.23
2019-06-07T03:52:11.609Z,17.67
2019-06-07T03:54:43.081Z,17.33
2019-06-07T03:57:14.532Z,16.63
2019-06-07T03:59:46.072Z,17.37
2019-06-07T04:02:18.535Z,17.93
2019-06-07T04:04:49.920Z,18.50
2019-06-07T04:07:21.390Z,18.03
2019-06-07T04:09:52.849Z,17.27
2019-06-07T04:12:24.336Z,16.57
2019-06-07T04:14:55.784Z,17.83
2019-06-07T04:17:30.705Z,16.50
2019-06-07T04:20:03.893Z,17.60
2019-06-07T04:22:38.851Z,17.60
2019-06-07T04:25:10.529Z,17.17
2019-06-07T04:27:42.215Z,18.00
2019-06-07T04:30:13.687Z,17.07
2019-06-07T04:32:45.271Z,16.57
2019-06-07T04:35:16.802Z,16.83
2019-06-07T04:37:48.381Z,15.83
2019-06-07T04:40:19.907Z,16.87
2019-06-07T04:42:51.816Z,15.73
2019-06-07T04:45:33.533Z,15.27
2019-06-07T04:47:58.013Z,15.63
2019-06-07T04:50:33.835Z,15.67
2019-06-07T04:53:04.223Z,16.87
2019-06-07T04:55:38.628Z,15.03
2019-06-07T04:58:08.787Z,14.90
2019-06-07T05:00:55.644Z,14.43
2019-06-07T05:03:13.475Z,14.93
2019-06-07T05:05:45.090Z,13.30
2019-06-07T05:08:27.399Z,14.93
2019-06-07T05:10:49.780Z,14.67
2019-06-07T05:13:21.154Z,15.20
2019-06-07T05:15:53.880Z,14.87
2019-06-07T05:18:26.526Z,17.03
2019-06-07T05:20:59.168Z,16.33
2019-06-07T05:24:06.400Z,16.23
2019-06-07T05:26:05.102Z,15.97
2019-06-07T05:28:42.291Z,14.83
2019-06-07T05:31:12.085Z,16.10
2019-06-07T05:33:44.174Z,14.50
2019-06-07T05:36:15.625Z,13.70
2019-06-07T05:38:47.681Z,14.87
2019-06-07T05:41:19.229Z,14.70
2019-06-07T05:44:11.225Z,14.70
2019-06-07T05:46:24.111Z,13.80
2019-06-07T05:48:55.629Z,13.83
2019-06-07T05:51:27.184Z,13.30
2019-06-07T05:53:58.786Z,14.73
2019-06-07T05:56:30.412Z,14.37
2019-06-07T05:59:01.880Z,15.10
2019-06-07T06:01:59.778Z,14.53
2019-06-07T06:04:06.746Z,14.37
2019-06-07T06:06:43.174Z,14.83
2019-06-07T06:09:14.116Z,13.57
2019-06-07T06:11:59.733Z,14.97
2019-06-07T06:14:19.007Z,15.00
2019-06-07T06:16:50.630Z,14.10
2019-06-07T06:19:22.157Z,16.17
2019-06-07T06:21:53.703Z,15.40
2019-06-07T06:24:25.580Z,15.37
2019-06-07T06:27:18.638Z,12.73
2019-06-07T06:29:30.967Z,11.97
2019-06-07T06:32:40.487Z,12.83
2019-06-07T06:34:39.409Z,12.50
2019-06-07T06:37:09.846Z,13.07
2019-06-07T06:39:42.156Z,12.87
2019-06-07T06:42:14.408Z,13.33
2019-06-07T06:44:47.127Z,15.17
2019-06-07T06:47:18.967Z,13.50
2019-06-07T06:49:54.299Z,13.57
2019-06-07T06:52:23.658Z,15.57
2019-06-07T06:55:00.595Z,13.67
2019-06-07T06:57:28.265Z,14.30
2019-06-07T06:59:59.639Z,14.07
2019-06-07T07:02:31.307Z,14.27
2019-06-07T07:05:03.027Z,13.90
2019-06-07T07:07:34.697Z,13.30
2019-06-07T07:10:06.972Z,11.90
2019-06-07T07:12:51.201Z,12.47
2019-06-07T07:15:22.008Z,12.80
2019-06-07T07:18:07.972Z,12.07
2019-06-07T07:20:27.605Z,12.40
2019-06-07T07:22:59.189Z,12.63
2019-06-07T07:25:30.761Z,13.37
2019-06-07T07:28:03.500Z,13.70
2019-06-07T07:30:52.566Z,12.13
2019-06-07T07:33:23.016Z,13.03
2019-06-07T07:36:15.893Z,13.00
2019-06-07T07:38:27.684Z,11.80
2019-06-07T07:41:14.007Z,11.70
2019-06-07T07:43:32.393Z,12.23
2019-06-07T07:46:27.421Z,12.20
2019-06-07T07:48:37.183Z,11.37
2019-06-07T07:51:08.574Z,13.37
2019-06-07T07:53:52.079Z,11.50
2019-06-07T07:56:13.180Z,12.27
2019-06-07T07:58:48.733Z,11.40
2019-06-07T08:01:18.621Z,11.80
2019-06-07T08:03:50.672Z,10.60
2019-06-07T08:06:41.584Z,10.60
2019-06-07T08:09:14.308Z,9.60
2019-06-07T08:11:47.368Z,8.60
2019-06-07T08:14:19.066Z,8.60
2019-06-07T08:16:51.892Z,7.87
2019-06-07T08:19:23.997Z,8.93
2019-06-07T08:21:55.700Z,9.07
2019-06-07T08:24:27.380Z,5.53
2019-06-07T08:27:24.800Z,5.30
2019-06-07T08:29:44.992Z,5.87
2019-06-07T08:32:09.030Z,5.73
2019-06-07T08:34:46.318Z,5.30
2019-06-07T08:37:18.227Z,7.90
2019-06-07T08:39:50.361Z,8.57
2019-06-07T08:42:36.483Z,7.33
2019-06-07T08:45:00.935Z,6.63
2019-06-07T08:47:29.073Z,6.90
2019-06-07T08:50:07.151Z,6.27
2019-06-07T08:52:34.307Z,7.07
2019-06-07T08:55:06.195Z,7.93
2019-06-07T08:57:42.115Z,7.27
2019-06-07T09:00:45.104Z,6.50
2019-06-07T09:03:05.199Z,7.37
2019-06-07T09:05:32.423Z,6.23
2019-06-07T09:08:23.490Z,6.00
2019-06-07T09:10:37.184Z,5.70
2019-06-07T09:13:11.788Z,6.10
2019-06-07T09:15:41.812Z,5.57
2019-06-07T09:20:48.686Z,5.70
2019-06-07T09:23:20.370Z,6.17
2019-06-07T09:26:02.568Z,6.17
2019-06-07T09:28:25.464Z,5.90
2019-06-07T09:30:59.572Z,5.87
2019-06-07T09:33:30.383Z,5.87
2019-06-07T09:36:07.948Z,6.63
2019-06-07T09:38:35.035Z,5.63
2019-06-07T09:41:07.629Z,5.23
2019-06-07T09:44:01.326Z,5.27
2019-06-07T09:46:16.093Z,5.63
2019-06-07T09:49:13.921Z,5.37
2019-06-07T09:51:20.748Z,5.30
2019-06-07T09:53:52.367Z,5.00
2019-06-07T09:56:24.005Z,5.00
2019-06-07T09:58:55.403Z,4.87
2019-06-07T10:01:27.386Z,5.27
2019-06-07T10:04:07.381Z,4.13
2019-06-07T10:06:32.550Z,3.87
2019-06-07T10:11:37.641Z,5.03
2019-06-07T10:14:09.039Z,4.10
2019-06-07T10:16:46.646Z,4.03
2019-06-07T10:19:16.333Z,4.67
2019-06-07T10:21:48.271Z,3.87
2019-06-07T10:24:19.850Z,4.00
2019-06-07T10:26:51.749Z,3.50
2019-06-07T10:29:24.304Z,3.70
2019-06-07T10:31:55.928Z,3.87
2019-06-07T10:34:27.491Z,3.60
2019-06-07T10:37:03.337Z,3.63
2019-06-07T10:39:47.567Z,3.57
2019-06-07T10:42:07.905Z,4.00
2019-06-07T10:44:39.978Z,3.87
2019-06-07T10:47:12.649Z,4.00
2019-06-07T10:49:44.039Z,4.57
2019-06-07T10:52:15.738Z,4.70
2019-06-07T10:54:47.265Z,3.63
2019-06-07T10:57:18.723Z,3.60
2019-06-07T10:59:50.201Z,4.43
2019-06-07T11:02:21.839Z,3.00
2019-06-07T11:04:53.301Z,2.80
2019-06-07T11:07:24.903Z,3.23
2019-06-07T11:10:06.322Z,2.90
2019-06-07T11:12:29.576Z,3.27
2019-06-07T11:15:01.052Z,3.07
2019-06-07T11:17:44.202Z,2.80
2019-06-07T11:20:18.654Z,3.07
2019-06-07T11:22:50.373Z,3.03
2019-06-07T11:25:21.759Z,5.83
2019-06-07T11:27:53.371Z,3.80
2019-06-07T11:30:27.331Z,3.30
2019-06-07T11:32:59.069Z,3.20
2019-06-07T11:35:31.487Z,3.33
2019-06-07T11:38:03.536Z,2.70
2019-06-07T11:40:36.162Z,3.03
2019-06-07T11:43:10.813Z,3.00
2019-06-07T11:45:42.481Z,3.37
2019-06-07T11:48:15.388Z,3.40
2019-06-07T11:50:47.553Z,3.30
2019-06-07T11:53:20.148Z,3.40
2019-06-07T11:55:53.244Z,4.17
2019-06-07T11:58:25.732Z,3.80
2019-06-07T12:00:57.297Z,4.10
2019-06-07T12:03:28.953Z,3.90
2019-06-07T12:06:00.870Z,3.60
2019-06-07T12:08:32.720Z,4.10
2019-06-07T12:18:07.200Z,6.13
2019-06-07T12:27:04.305Z,5.10
2019-06-07T12:37:17.369Z,5.50
2019-06-07T12:46:28.140Z,5.60
2019-06-07T12:48:57.639Z,6.40
2019-06-07T12:58:35.394Z,6.60
2019-06-07T13:20:28.696Z,7.40
2019-06-07T14:29:18.252Z,7.00
2019-06-07T15:00:45.508Z,7.67
2019-06-07T15:19:13.553Z,7.33
2019-06-07T15:35:30.118Z,6.17
2019-06-07T16:06:59.391Z,7.00
2019-06-07T16:09:32.295Z,5.93
2019-06-07T16:12:05.061Z,6.30
2019-06-07T16:14:36.980Z,5.67
2019-06-07T16:17:09.731Z,5.90
2019-06-07T16:19:45.105Z,5.60
2019-06-07T16:22:16.218Z,6.17
2019-06-07T16:24:47.742Z,5.80
2019-06-07T16:27:19.252Z,5.30
2019-06-07T16:29:50.821Z,5.63
2019-06-07T16:32:22.354Z,6.23
2019-06-07T16:35:05.313Z,6.23
2019-06-07T16:37:38.166Z,6.23
2019-06-07T16:40:11.058Z,5.93
2019-06-07T16:42:43.013Z,5.60
2019-06-07T16:45:17.046Z,6.10
2019-06-07T16:47:49.768Z,6.13
2019-06-07T16:50:21.392Z,6.13
2019-06-07T16:52:52.917Z,6.23
2019-06-07T16:55:24.304Z,6.30
2019-06-07T16:57:56.741Z,6.07
2019-06-07T17:00:29.209Z,5.60
2019-06-07T17:03:02.016Z,5.97
2019-06-07T17:05:33.508Z,6.80
2019-06-07T17:08:05.184Z,7.97
2019-06-07T17:10:37.960Z,7.57
2019-06-07T17:13:09.691Z,6.17
2019-06-07T17:15:41.070Z,6.43
2019-06-07T17:18:12.607Z,6.10
2019-06-07T17:20:45.354Z,6.03
2019-06-07T17:23:17.887Z,6.43
2019-06-07T17:25:49.770Z,5.63
2019-06-07T17:28:23.158Z,5.70
2019-06-07T17:30:54.619Z,6.00
2019-06-07T17:33:26.157Z,7.40
2019-06-07T17:35:57.630Z,7.37
2019-06-07T17:38:29.487Z,6.50
2019-06-07T17:41:00.904Z,7.20
2019-06-07T17:43:48.571Z,6.80
2019-06-07T17:46:06.577Z,7.03
2019-06-07T17:48:38.151Z,6.10
2019-06-07T17:51:09.533Z,25.73
2019-06-07T17:53:43.881Z,19.07
2019-06-07T17:56:15.469Z,11.40
2019-06-07T17:58:48.306Z,11.17
2019-06-07T18:01:19.856Z,10.17
2019-06-07T18:03:53.205Z,8.90
2019-06-07T18:06:25.179Z,9.57
2019-06-07T18:08:57.113Z,11.37
2019-06-07T18:11:47.884Z,21.73
2019-06-07T18:14:20.101Z,17.00
2019-06-07T18:16:52.735Z,12.10
2019-06-07T18:19:28.042Z,11.47
2019-06-07T18:22:00.548Z,10.03
2019-06-07T18:24:33.210Z,10.00
2019-06-07T18:27:07.184Z,9.67
2019-06-07T18:29:38.419Z,12.23
2019-06-07T18:32:13.381Z,10.67
2019-06-07T18:34:43.220Z,10.67
2019-06-07T18:37:14.905Z,10.67
2019-06-07T18:39:47.021Z,11.20
2019-06-07T18:42:19.793Z,11.87
2019-06-07T18:44:51.354Z,11.63
2019-06-07T18:47:23.954Z,12.13
2019-06-07T18:49:57.917Z,9.87
2019-06-07T18:52:33.045Z,9.47
2019-06-07T18:55:05.386Z,9.67
2019-06-07T18:57:37.018Z,9.80
2019-06-07T19:00:09.797Z,10.80
2019-06-07T19:02:41.397Z,10.60
2019-06-07T19:05:15.101Z,12.30
2019-06-07T19:07:46.497Z,12.17
2019-06-07T19:10:18.973Z,10.57
2019-06-07T19:12:50.943Z,10.13
2019-06-07T19:15:23.439Z,10.63
2019-06-07T19:17:56.106Z,10.70
2019-06-07T19:20:28.099Z,10.43
2019-06-07T19:23:00.547Z,9.77
2019-06-07T19:25:32.337Z,9.60
2019-06-07T19:28:03.701Z,9.57
2019-06-07T19:30:35.219Z,9.10
2019-06-07T19:33:06.703Z,9.60
2019-06-07T19:35:38.272Z,10.10
2019-06-07T19:38:09.927Z,10.07
2019-06-07T19:40:42.562Z,9.90
2019-06-07T19:43:14.012Z,9.60
2019-06-07T19:45:45.790Z,9.57
2019-06-07T19:48:17.179Z,11.20
2019-06-07T19:50:49.167Z,9.87
2019-06-07T19:53:20.670Z,10.13
2019-06-07T19:55:53.338Z,9.33
2019-06-07T19:58:24.922Z,10.50
2019-06-07T20:00:57.568Z,12.70
2019-06-07T20:03:33.071Z,13.60
2019-06-07T20:06:16.409Z,12.37
2019-06-07T20:08:47.981Z,10.03
2019-06-07T20:11:19.617Z,10.30
2019-06-07T20:13:51.278Z,12.20
2019-06-07T20:16:23.089Z,11.00
2019-06-07T20:18:56.071Z,11.80
2019-06-07T20:21:27.926Z,10.40
2019-06-07T20:24:04.879Z,10.83
2019-06-07T20:26:33.258Z,11.13
2019-06-07T20:29:05.697Z,11.70
2019-06-07T20:31:37.566Z,10.80
2019-06-07T20:34:09.240Z,11.20
2019-06-07T20:36:41.314Z,10.40
2019-06-07T20:39:13.261Z,11.00
2019-06-07T20:41:44.932Z,10.40
2019-06-07T20:44:16.396Z,10.10
2019-06-07T20:46:47.904Z,10.23
2019-06-07T20:49:19.434Z,9.70
2019-06-07T20:51:51.079Z,10.37
2019-06-07T20:54:22.558Z,10.33
2019-06-07T20:56:54.156Z,10.00
2019-06-07T20:59:25.902Z,10.07
2019-06-07T21:01:58.675Z,9.43
2019-06-07T21:04:30.439Z,10.43
2019-06-07T21:07:03.261Z,10.23
2019-06-07T21:09:35.840Z,10.43
2019-06-07T21:12:07.903Z,11.20
2019-06-07T21:14:40.001Z,9.77
2019-06-07T21:17:11.499Z,9.77
2019-06-07T21:19:43.038Z,10.43
2019-06-07T21:22:14.426Z,9.80
2019-06-07T21:24:45.993Z,10.30
2019-06-07T21:27:17.458Z,12.30
2019-06-07T21:29:48.907Z,13.23
2019-06-07T21:32:20.309Z,13.57
2019-06-07T21:34:52.258Z,13.27
2019-06-07T21:37:24.194Z,14.20
2019-06-07T21:39:55.747Z,17.07
2019-06-07T21:42:27.182Z,14.90
2019-06-07T21:44:58.705Z,16.97
2019-06-07T21:47:30.605Z,20.67
2019-06-07T21:50:02.571Z,21.37
2019-06-07T21:52:34.238Z,19.03
2019-06-07T21:55:06.946Z,18.47
2019-06-07T21:57:39.277Z,16.67
2019-06-07T22:00:15.672Z,14.93
2019-06-07T22:02:49.188Z,13.83
2019-06-07T22:05:20.743Z,12.97
2019-06-07T22:07:52.368Z,13.03
2019-06-07T22:10:23.958Z,13.10
2019-06-07T22:12:55.513Z,12.93
2019-06-07T22:15:34.032Z,14.07
2019-06-07T22:18:00.256Z,14.20
2019-06-07T22:20:32.749Z,13.93
2019-06-07T22:23:04.499Z,13.00
2019-06-07T22:25:36.755Z,12.33
2019-06-07T22:28:08.245Z,11.67
2019-06-07T22:30:39.865Z,12.43
2019-06-07T22:33:13.238Z,11.90
2019-06-07T22:35:45.362Z,11.50
2019-06-07T22:38:16.808Z,11.63
2019-06-07T22:40:48.378Z,11.67
2019-06-07T22:43:22.298Z,11.63
2019-06-07T22:45:53.821Z,11.40
2019-06-07T22:48:25.339Z,12.50
2019-06-07T22:50:58.419Z,11.77
2019-06-07T22:53:29.934Z,11.20
2019-06-07T22:56:23.458Z,11.90
2019-06-07T22:58:54.946Z,12.67
2019-06-07T23:01:26.496Z,12.30
2019-06-07T23:03:58.013Z,11.80
2019-06-07T23:06:29.473Z,12.10
2019-06-07T23:09:00.885Z,10.80
2019-06-07T23:11:33.983Z,10.97
2019-06-07T23:14:05.658Z,11.80
2019-06-07T23:16:53.997Z,12.00
2019-06-07T23:19:11.853Z,12.00
2019-06-07T23:21:43.706Z,12.33
2019-06-07T23:24:16.413Z,12.47
2019-06-07T23:26:48.020Z,12.63
2019-06-07T23:29:20.684Z,13.03
2019-06-07T23:31:53.530Z,12.90
2019-06-07T23:34:25.562Z,13.67
2019-06-07T23:36:57.004Z,13.37
2019-06-07T23:39:28.471Z,13.50
2019-06-07T23:41:59.996Z,12.83
2019-06-07T23:44:31.588Z,12.50
2019-06-07T23:47:11.154Z,12.70
2019-06-07T23:49:37.029Z,12.60
2019-06-07T23:52:08.602Z,12.57
2019-06-07T23:54:40.419Z,12.93
2019-06-07T23:57:12.151Z,11.57
2019-06-07T23:59:44.727Z,11.67
